createdAt,value
2017-02-28T00:00:07.817Z,20.62
2017-02-28T00:00:48.452Z,20.58
2017-02-28T00:01:29.191Z,20.53
2017-02-28T00:02:09.832Z,20.53
2017-02-28T00:02:50.484Z,20.5
2017-02-28T00:03:31.127Z,20.56
2017-02-28T00:04:11.784Z,20.51
2017-02-28T00:04:52.419Z,20.51
2017-02-28T00:05:33.062Z,20.61
2017-02-28T00:06:13.729Z,20.51
2017-02-28T00:06:54.372Z,20.49
2017-02-28T00:07:35.104Z,20.51
2017-02-28T00:08:15.823Z,20.51
2017-02-28T00:08:56.475Z,20.53
2017-02-28T00:09:37.131Z,20.58
2017-02-28T00:10:17.853Z,20.5
2017-02-28T00:10:58.558Z,20.51
2017-02-28T00:11:39.206Z,20.41
2017-02-28T00:12:19.912Z,20.38
2017-02-28T00:13:00.670Z,20.42
2017-02-28T00:13:41.325Z,20.41
2017-02-28T00:14:21.964Z,20.51
2017-02-28T00:15:02.696Z,20.46
2017-02-28T00:15:43.400Z,20.5
2017-02-28T00:16:24.037Z,20.49
2017-02-28T00:17:04.748Z,20.42
2017-02-28T00:17:45.411Z,20.43
2017-02-28T00:18:26.049Z,20.41
2017-02-28T00:19:06.698Z,20.43
2017-02-28T00:19:47.411Z,20.5
2017-02-28T00:20:28.048Z,20.42
2017-02-28T00:21:08.686Z,20.39
2017-02-28T00:21:49.371Z,20.41
2017-02-28T00:22:30.011Z,20.42
2017-02-28T00:23:10.672Z,20.41
2017-02-28T00:23:51.333Z,20.47
2017-02-28T00:24:32.043Z,20.46
2017-02-28T00:25:12.676Z,20.41
2017-02-28T00:25:53.347Z,20.42
2017-02-28T00:26:34.012Z,20.42
2017-02-28T00:27:14.652Z,20.43
2017-02-28T00:27:55.392Z,20.43
2017-02-28T00:28:36.028Z,20.47
2017-02-28T00:29:16.765Z,20.39
2017-02-28T00:29:57.419Z,20.47
2017-02-28T00:30:38.055Z,20.43
2017-02-28T00:31:18.697Z,20.41
2017-02-28T00:31:59.348Z,20.49
2017-02-28T00:32:40.041Z,20.41
2017-02-28T00:33:20.731Z,20.42
2017-02-28T00:34:01.373Z,20.46
2017-02-28T00:34:42.021Z,20.42
2017-02-28T00:35:22.657Z,20.41
2017-02-28T00:36:03.302Z,20.42
2017-02-28T00:36:43.939Z,20.42
2017-02-28T00:37:24.581Z,20.49
2017-02-28T00:38:05.231Z,20.39
2017-02-28T00:38:45.888Z,20.43
2017-02-28T00:39:26.612Z,20.42
2017-02-28T00:40:07.280Z,20.46
2017-02-28T00:40:47.854Z,20.39
2017-02-28T00:41:28.597Z,20.43
2017-02-28T00:42:09.319Z,20.41
2017-02-28T00:42:49.957Z,20.43
2017-02-28T00:43:30.591Z,20.46
2017-02-28T00:44:11.280Z,20.41
2017-02-28T00:44:51.923Z,20.46
2017-02-28T00:45:32.563Z,20.46
2017-02-28T00:46:13.242Z,20.41
2017-02-28T00:46:53.880Z,20.39
2017-02-28T00:47:34.615Z,20.34
2017-02-28T00:48:15.285Z,20.39
2017-02-28T00:48:55.999Z,20.41
2017-02-28T00:49:36.656Z,20.33
2017-02-28T00:50:17.379Z,20.46
2017-02-28T00:50:58.044Z,20.41
2017-02-28T00:51:38.697Z,20.41
2017-02-28T00:52:19.455Z,20.34
2017-02-28T00:53:00.168Z,20.33
2017-02-28T00:53:40.878Z,20.28
2017-02-28T00:54:21.517Z,20.28
2017-02-28T00:55:02.204Z,20.41
2017-02-28T00:55:42.929Z,20.35
2017-02-28T00:56:23.573Z,20.28
2017-02-28T00:57:04.262Z,20.34
2017-02-28T00:57:44.967Z,20.33
2017-02-28T00:58:25.691Z,20.28
2017-02-28T00:59:06.324Z,20.34
2017-02-28T00:59:46.980Z,20.41
2017-02-28T01:00:27.719Z,20.33
2017-02-28T01:01:08.361Z,20.31
2017-02-28T01:01:49.004Z,20.34
2017-02-28T01:02:29.728Z,20.31
2017-02-28T01:03:10.360Z,20.27
2017-02-28T01:03:50.998Z,20.35
2017-02-28T01:04:31.705Z,20.28
2017-02-28T01:05:12.339Z,20.31
2017-02-28T01:05:52.983Z,20.25
2017-02-28T01:06:33.774Z,20.34
2017-02-28T01:07:14.484Z,20.33
2017-02-28T01:07:55.112Z,20.28
2017-02-28T01:08:35.754Z,20.3
2017-02-28T01:09:16.445Z,20.23
2017-02-28T01:09:57.077Z,20.25
2017-02-28T01:10:37.801Z,20.35
2017-02-28T01:11:18.477Z,20.28
2017-02-28T01:11:59.198Z,20.33
2017-02-28T01:12:39.830Z,20.25
2017-02-28T01:13:20.516Z,20.3
2017-02-28T01:14:01.268Z,20.24
2017-02-28T01:14:41.977Z,20.38
2017-02-28T01:15:22.593Z,20.3
2017-02-28T01:16:03.229Z,20.3
2017-02-28T01:16:43.948Z,20.23
2017-02-28T01:17:24.596Z,20.24
2017-02-28T01:18:05.223Z,20.39
2017-02-28T01:18:45.926Z,20.3
2017-02-28T01:19:26.602Z,20.23
2017-02-28T01:20:07.231Z,20.23
2017-02-28T01:20:47.954Z,20.23
2017-02-28T01:21:28.590Z,20.25
2017-02-28T01:22:09.309Z,20.31
2017-02-28T01:22:49.964Z,20.27
2017-02-28T01:23:30.626Z,20.28
2017-02-28T01:24:11.233Z,20.28
2017-02-28T01:24:51.882Z,20.18
2017-02-28T01:25:32.559Z,20.28
2017-02-28T01:26:13.188Z,20.23
2017-02-28T01:26:53.874Z,20.27
2017-02-28T01:27:34.528Z,20.27
2017-02-28T01:28:15.177Z,20.27
2017-02-28T01:28:55.891Z,20.21
2017-02-28T01:29:36.641Z,20.24
2017-02-28T01:30:17.280Z,20.18
2017-02-28T01:30:57.982Z,20.2
2017-02-28T01:31:38.709Z,20.2
2017-02-28T01:32:19.377Z,20.2
2017-02-28T01:33:00.034Z,20.25
2017-02-28T01:33:40.668Z,20.27
2017-02-28T01:34:21.368Z,20.21
2017-02-28T01:35:02.022Z,20.23
2017-02-28T01:35:42.669Z,20.27
2017-02-28T01:36:23.340Z,20.23
2017-02-28T01:37:03.977Z,20.25
2017-02-28T01:37:44.688Z,20.16
2017-02-28T01:38:25.457Z,20.24
2017-02-28T01:39:06.104Z,20.24
2017-02-28T01:39:46.735Z,20.16
2017-02-28T01:40:27.408Z,20.18
2017-02-28T01:41:08.052Z,20.23
2017-02-28T01:41:48.698Z,20.18
2017-02-28T01:42:29.403Z,20.25
2017-02-28T01:43:10.086Z,20.18
2017-02-28T01:43:50.715Z,20.24
2017-02-28T01:44:31.394Z,20.21
2017-02-28T01:45:12.055Z,20.27
2017-02-28T01:45:52.687Z,20.3
2017-02-28T01:46:33.323Z,20.23
2017-02-28T01:47:14.052Z,20.21
2017-02-28T01:47:54.679Z,20.27
2017-02-28T01:48:35.318Z,20.21
2017-02-28T01:49:16.020Z,20.16
2017-02-28T01:49:56.648Z,20.15
2017-02-28T01:50:37.278Z,20.13
2017-02-28T01:51:17.947Z,20.16
2017-02-28T01:51:58.614Z,20.23
2017-02-28T01:52:39.256Z,20.13
2017-02-28T01:53:19.922Z,20.24
2017-02-28T01:54:00.625Z,20.13
2017-02-28T01:54:41.258Z,20.27
2017-02-28T01:55:21.901Z,20.25
2017-02-28T01:56:02.614Z,20.27
2017-02-28T01:56:43.240Z,20.18
2017-02-28T01:57:23.908Z,20.25
2017-02-28T01:58:04.558Z,20.2
2017-02-28T01:58:45.186Z,20.21
2017-02-28T01:59:25.934Z,20.21
2017-02-28T02:00:06.586Z,20.23
2017-02-28T02:00:47.298Z,20.21
2017-02-28T02:01:27.959Z,20.23
2017-02-28T02:02:08.654Z,20.2
2017-02-28T02:02:49.334Z,20.2
2017-02-28T02:03:29.969Z,20.18
2017-02-28T02:04:10.606Z,20.21
2017-02-28T02:04:51.286Z,20.2
2017-02-28T02:05:31.923Z,20.23
2017-02-28T02:06:12.615Z,20.2
2017-02-28T02:06:53.283Z,20.2
2017-02-28T02:07:33.918Z,20.21
2017-02-28T02:08:14.553Z,20.23
2017-02-28T02:08:55.275Z,20.2
2017-02-28T02:09:35.979Z,20.23
2017-02-28T02:10:16.644Z,20.21
2017-02-28T02:10:57.295Z,20.18
2017-02-28T02:11:38.053Z,20.28
2017-02-28T02:12:18.695Z,20.2
2017-02-28T02:12:59.408Z,20.09
2017-02-28T02:13:40.140Z,20.23
2017-02-28T02:14:20.770Z,20.2
2017-02-28T02:15:01.405Z,20.23
2017-02-28T02:15:42.040Z,20.13
2017-02-28T02:16:22.751Z,20.21
2017-02-28T02:17:03.381Z,20.18
2017-02-28T02:17:44.020Z,20.16
2017-02-28T02:18:24.699Z,20.16
2017-02-28T02:19:05.337Z,20.15
2017-02-28T02:19:45.981Z,20.18
2017-02-28T02:20:26.630Z,20.28
2017-02-28T02:21:07.262Z,20.24
2017-02-28T02:21:47.900Z,20.2
2017-02-28T02:22:28.563Z,20.16
2017-02-28T02:23:09.209Z,20.15
2017-02-28T02:23:49.844Z,20.12
2017-02-28T02:24:30.501Z,20.12
2017-02-28T02:25:11.151Z,20.1
2017-02-28T02:25:51.803Z,20.13
2017-02-28T02:26:32.527Z,20.1
2017-02-28T02:27:13.165Z,20.18
2017-02-28T02:27:53.860Z,20.15
2017-02-28T02:28:34.488Z,20.15
2017-02-28T02:29:15.170Z,20.15
2017-02-28T02:29:55.840Z,20.15
2017-02-28T02:30:36.486Z,20.08
2017-02-28T02:31:17.139Z,20.15
2017-02-28T02:31:57.775Z,20.1
2017-02-28T02:32:38.428Z,20.16
2017-02-28T02:33:19.084Z,20.15
2017-02-28T02:33:59.704Z,20.15
2017-02-28T02:34:40.342Z,20.09
2017-02-28T02:35:21.036Z,20.1
2017-02-28T02:36:01.662Z,20.08
2017-02-28T02:36:42.308Z,20.09
2017-02-28T02:37:23.003Z,20
2017-02-28T02:38:03.625Z,20.16
2017-02-28T02:38:44.257Z,20.06
2017-02-28T02:39:24.927Z,20.15
2017-02-28T02:40:05.571Z,20.05
2017-02-28T02:40:46.213Z,20.12
2017-02-28T02:41:26.857Z,20.13
2017-02-28T02:42:07.490Z,20.05
2017-02-28T02:42:48.118Z,20.18
2017-02-28T02:43:28.843Z,20.12
2017-02-28T02:44:09.477Z,20.15
2017-02-28T02:44:50.181Z,20.18
2017-02-28T02:45:30.853Z,20.1
2017-02-28T02:46:11.533Z,20.16
2017-02-28T02:46:52.153Z,20.13
2017-02-28T02:47:32.789Z,20.18
2017-02-28T02:48:13.463Z,20.18
2017-02-28T02:48:54.158Z,20.09
2017-02-28T02:49:34.794Z,20.09
2017-02-28T02:50:15.474Z,20.1
2017-02-28T02:50:56.106Z,20.12
2017-02-28T02:51:36.736Z,20.13
2017-02-28T02:52:17.407Z,20.05
2017-02-28T02:52:58.043Z,20.09
2017-02-28T02:53:38.663Z,20.13
2017-02-28T02:54:19.326Z,20.16
2017-02-28T02:54:59.966Z,20.12
2017-02-28T02:55:40.590Z,20.12
2017-02-28T02:56:21.271Z,20.12
2017-02-28T02:57:01.899Z,20.12
2017-02-28T02:57:42.539Z,20.06
2017-02-28T02:58:23.231Z,20.18
2017-02-28T02:59:03.852Z,20.09
2017-02-28T02:59:44.501Z,20.09
2017-02-28T03:00:25.239Z,20.12
2017-02-28T03:01:05.871Z,20.1
2017-02-28T03:01:46.519Z,20.05
2017-02-28T03:02:27.180Z,20
2017-02-28T03:03:07.814Z,20.08
2017-02-28T03:03:48.486Z,20.08
2017-02-28T03:04:29.148Z,20.08
2017-02-28T03:05:09.865Z,20.02
2017-02-28T03:05:50.481Z,20.09
2017-02-28T03:06:31.200Z,20.03
2017-02-28T03:07:11.820Z,20.13
2017-02-28T03:07:52.452Z,20.09
2017-02-28T03:08:33.089Z,20.03
2017-02-28T03:09:13.724Z,20.08
2017-02-28T03:09:54.351Z,20.08
2017-02-28T03:10:34.986Z,20.1
2017-02-28T03:11:15.700Z,20.08
2017-02-28T03:11:56.330Z,20.08
2017-02-28T03:12:36.954Z,20.08
2017-02-28T03:13:17.595Z,20.08
2017-02-28T03:13:58.223Z,20.02
2017-02-28T03:14:38.878Z,20.2
2017-02-28T03:15:19.514Z,20.13
2017-02-28T03:16:00.149Z,20.15
2017-02-28T03:16:40.840Z,20.16
2017-02-28T03:17:21.516Z,20.09
2017-02-28T03:18:02.146Z,20.12
2017-02-28T03:18:42.784Z,20.03
2017-02-28T03:19:23.444Z,20.03
2017-02-28T03:20:04.072Z,20.09
2017-02-28T03:20:44.712Z,20.05
2017-02-28T03:21:25.405Z,20.09
2017-02-28T03:22:06.027Z,20.12
2017-02-28T03:22:46.646Z,20.13
2017-02-28T03:23:27.336Z,20.09
2017-02-28T03:24:07.962Z,20.02
2017-02-28T03:24:48.591Z,20.1
2017-02-28T03:25:29.258Z,20.08
2017-02-28T03:26:09.904Z,20.09
2017-02-28T03:26:50.557Z,20.03
2017-02-28T03:27:31.251Z,20.03
2017-02-28T03:28:11.965Z,20.03
2017-02-28T03:28:52.582Z,20.02
2017-02-28T03:29:33.231Z,20.06
2017-02-28T03:30:13.915Z,20.02
2017-02-28T03:30:54.558Z,20.06
2017-02-28T03:31:35.204Z,20.1
2017-02-28T03:32:15.925Z,20.06
2017-02-28T03:32:56.543Z,20.09
2017-02-28T03:33:37.169Z,20.09
2017-02-28T03:34:17.803Z,20.06
2017-02-28T03:34:58.433Z,20.02
2017-02-28T03:35:39.109Z,20.05
2017-02-28T03:36:19.749Z,20.06
2017-02-28T03:37:00.377Z,20.12
2017-02-28T03:37:41.049Z,20.09
2017-02-28T03:38:21.754Z,20.03
2017-02-28T03:39:02.377Z,20.05
2017-02-28T03:39:43.039Z,20.08
2017-02-28T03:40:23.696Z,20.09
2017-02-28T03:41:04.324Z,20.08
2017-02-28T03:41:45.059Z,20.1
2017-02-28T03:42:25.780Z,20.05
2017-02-28T03:43:06.494Z,20.05
2017-02-28T03:43:47.117Z,20.05
2017-02-28T03:44:27.810Z,20.08
2017-02-28T03:45:08.454Z,20.02
2017-02-28T03:45:49.099Z,20.08
2017-02-28T03:46:29.731Z,20.05
2017-02-28T03:47:10.356Z,20
2017-02-28T03:47:51.010Z,20.02
2017-02-28T03:48:31.627Z,20
2017-02-28T03:49:12.327Z,19.98
2017-02-28T03:49:52.958Z,20
2017-02-28T03:50:33.587Z,20.08
2017-02-28T03:51:14.246Z,20.08
2017-02-28T03:51:54.862Z,20
2017-02-28T03:52:35.493Z,20.02
2017-02-28T03:53:16.167Z,19.97
2017-02-28T03:53:56.799Z,19.97
2017-02-28T03:54:37.449Z,19.93
2017-02-28T03:55:18.144Z,19.93
2017-02-28T03:55:58.781Z,20
2017-02-28T03:56:39.402Z,19.91
2017-02-28T03:57:20.080Z,20
2017-02-28T03:58:00.708Z,20.03
2017-02-28T03:58:41.342Z,20.03
2017-02-28T03:59:21.997Z,19.94
2017-02-28T04:00:02.621Z,20
2017-02-28T04:00:43.252Z,20.08
2017-02-28T04:01:23.878Z,20.02
2017-02-28T04:02:04.509Z,20
2017-02-28T04:02:45.215Z,20.05
2017-02-28T04:03:25.920Z,20.05
2017-02-28T04:04:06.597Z,19.94
2017-02-28T04:04:47.224Z,20.03
2017-02-28T04:05:27.926Z,19.94
2017-02-28T04:06:08.651Z,20.08
2017-02-28T04:06:49.300Z,20
2017-02-28T04:07:29.939Z,20.08
2017-02-28T04:08:10.611Z,20
2017-02-28T04:08:51.247Z,19.95
2017-02-28T04:09:31.888Z,19.91
2017-02-28T04:10:12.620Z,19.93
2017-02-28T04:10:53.252Z,20.05
2017-02-28T04:11:33.895Z,20.02
2017-02-28T04:12:14.568Z,20
2017-02-28T04:12:55.187Z,19.91
2017-02-28T04:13:35.817Z,19.97
2017-02-28T04:14:16.496Z,19.94
2017-02-28T04:14:57.127Z,19.93
2017-02-28T04:15:37.772Z,19.97
2017-02-28T04:16:18.522Z,19.95
2017-02-28T04:16:59.169Z,19.95
2017-02-28T04:17:39.784Z,19.91
2017-02-28T04:18:20.446Z,20
2017-02-28T04:19:01.070Z,20
2017-02-28T04:19:41.699Z,20.02
2017-02-28T04:20:22.378Z,20.02
2017-02-28T04:21:03.005Z,19.95
2017-02-28T04:21:43.639Z,19.95
2017-02-28T04:22:24.301Z,20.03
2017-02-28T04:23:04.947Z,20.02
2017-02-28T04:23:45.589Z,20.03
2017-02-28T04:24:26.268Z,20
2017-02-28T04:25:06.984Z,20
2017-02-28T04:25:47.618Z,19.91
2017-02-28T04:26:28.291Z,19.94
2017-02-28T04:27:08.939Z,19.97
2017-02-28T04:27:49.561Z,19.93
2017-02-28T04:28:30.277Z,19.95
2017-02-28T04:29:10.955Z,19.93
2017-02-28T04:29:51.598Z,19.9
2017-02-28T04:30:32.241Z,19.93
2017-02-28T04:31:12.893Z,19.93
2017-02-28T04:31:53.543Z,19.93
2017-02-28T04:32:34.168Z,19.93
2017-02-28T04:33:14.828Z,19.93
2017-02-28T04:33:55.455Z,19.93
2017-02-28T04:34:36.083Z,19.9
2017-02-28T04:35:16.766Z,19.98
2017-02-28T04:35:57.406Z,19.94
2017-02-28T04:36:38.044Z,19.93
2017-02-28T04:37:18.751Z,19.93
2017-02-28T04:37:59.420Z,20
2017-02-28T04:38:40.051Z,19.98
2017-02-28T04:39:20.737Z,19.94
2017-02-28T04:40:01.418Z,19.95
2017-02-28T04:40:42.044Z,19.95
2017-02-28T04:41:22.697Z,19.97
2017-02-28T04:42:03.390Z,19.93
2017-02-28T04:42:44.021Z,19.93
2017-02-28T04:43:24.693Z,19.91
2017-02-28T04:44:05.371Z,19.94
2017-02-28T04:44:46.004Z,19.98
2017-02-28T04:45:26.657Z,19.79
2017-02-28T04:46:07.339Z,19.94
2017-02-28T04:46:47.978Z,20
2017-02-28T04:47:28.614Z,19.95
2017-02-28T04:48:09.288Z,19.97
2017-02-28T04:48:49.922Z,19.93
2017-02-28T04:49:30.558Z,19.91
2017-02-28T04:50:11.190Z,19.97
2017-02-28T04:50:51.819Z,19.91
2017-02-28T04:51:32.447Z,19.94
2017-02-28T04:52:13.144Z,19.93
2017-02-28T04:52:53.797Z,19.94
2017-02-28T04:53:34.434Z,19.94
2017-02-28T04:54:15.120Z,19.94
2017-02-28T04:54:55.754Z,19.94
2017-02-28T04:55:36.385Z,19.94
2017-02-28T04:56:17.069Z,19.98
2017-02-28T04:56:57.792Z,19.95
2017-02-28T04:57:38.418Z,19.8
2017-02-28T04:58:19.080Z,19.98
2017-02-28T04:58:59.764Z,19.83
2017-02-28T04:59:40.394Z,19.88
2017-02-28T05:00:21.072Z,19.8
2017-02-28T05:01:01.738Z,19.97
2017-02-28T05:01:42.379Z,19.93
2017-02-28T05:02:23.044Z,19.94
2017-02-28T05:03:03.703Z,19.97
2017-02-28T05:03:44.335Z,19.94
2017-02-28T05:04:24.981Z,19.87
2017-02-28T05:05:05.635Z,19.93
2017-02-28T05:05:46.261Z,19.97
2017-02-28T05:06:26.886Z,19.79
2017-02-28T05:07:07.570Z,19.86
2017-02-28T05:07:48.202Z,19.84
2017-02-28T05:08:28.835Z,19.78
2017-02-28T05:09:09.493Z,19.95
2017-02-28T05:09:50.124Z,19.95
2017-02-28T05:10:30.756Z,19.94
2017-02-28T05:11:11.382Z,19.93
2017-02-28T05:11:52.108Z,19.91
2017-02-28T05:12:32.754Z,19.95
2017-02-28T05:13:13.436Z,19.91
2017-02-28T05:13:54.160Z,19.91
2017-02-28T05:14:34.786Z,19.93
2017-02-28T05:15:15.466Z,19.8
2017-02-28T05:15:56.123Z,19.91
2017-02-28T05:16:36.748Z,19.95
2017-02-28T05:17:17.431Z,19.97
2017-02-28T05:17:58.128Z,19.93
2017-02-28T05:18:38.747Z,19.8
2017-02-28T05:19:19.379Z,19.87
2017-02-28T05:20:00.079Z,19.8
2017-02-28T05:20:40.706Z,19.8
2017-02-28T05:21:21.346Z,19.9
2017-02-28T05:22:01.985Z,19.95
2017-02-28T05:22:42.626Z,19.86
2017-02-28T05:23:23.268Z,19.76
2017-02-28T05:24:03.927Z,19.86
2017-02-28T05:24:44.664Z,19.88
2017-02-28T05:25:25.318Z,19.84
2017-02-28T05:26:06.019Z,19.83
2017-02-28T05:26:46.655Z,19.83
2017-02-28T05:27:27.286Z,19.94
2017-02-28T05:28:07.927Z,19.95
2017-02-28T05:28:48.648Z,19.94
2017-02-28T05:29:29.282Z,19.94
2017-02-28T05:30:10.015Z,19.94
2017-02-28T05:30:50.651Z,19.93
2017-02-28T05:31:31.283Z,19.86
2017-02-28T05:32:11.933Z,19.97
2017-02-28T05:32:52.586Z,19.93
2017-02-28T05:33:33.227Z,19.87
2017-02-28T05:34:13.853Z,19.88
2017-02-28T05:34:54.527Z,19.9
2017-02-28T05:35:35.161Z,19.87
2017-02-28T05:36:15.814Z,19.87
2017-02-28T05:36:56.505Z,19.9
2017-02-28T05:37:37.134Z,19.83
2017-02-28T05:38:17.762Z,19.86
2017-02-28T05:38:58.427Z,19.91
2017-02-28T05:39:39.063Z,19.9
2017-02-28T05:40:19.685Z,19.86
2017-02-28T05:41:00.426Z,19.83
2017-02-28T05:41:41.086Z,19.91
2017-02-28T05:42:21.712Z,19.94
2017-02-28T05:43:02.336Z,19.94
2017-02-28T05:43:43.037Z,19.87
2017-02-28T05:44:23.664Z,19.78
2017-02-28T05:45:04.359Z,19.79
2017-02-28T05:45:45.002Z,19.83
2017-02-28T05:46:25.627Z,19.9
2017-02-28T05:47:06.283Z,19.76
2017-02-28T05:47:47.015Z,19.91
2017-02-28T05:48:27.663Z,19.93
2017-02-28T05:49:08.314Z,19.95
2017-02-28T05:49:48.943Z,19.9
2017-02-28T05:50:29.600Z,19.93
2017-02-28T05:51:10.236Z,19.95
2017-02-28T05:51:50.893Z,19.95
2017-02-28T05:52:31.531Z,19.93
2017-02-28T05:53:12.161Z,19.97
2017-02-28T05:53:52.804Z,19.86
2017-02-28T05:54:33.545Z,19.79
2017-02-28T05:55:14.164Z,19.91
2017-02-28T05:55:54.807Z,19.84
2017-02-28T05:56:35.433Z,19.86
2017-02-28T05:57:16.067Z,19.88
2017-02-28T05:57:57.454Z,19.84
2017-02-28T05:58:38.091Z,19.86
2017-02-28T05:59:18.762Z,19.78
2017-02-28T05:59:59.404Z,19.86
2017-02-28T06:00:40.047Z,19.87
2017-02-28T06:01:20.761Z,19.83
2017-02-28T06:02:01.468Z,19.84
2017-02-28T06:02:42.147Z,19.83
2017-02-28T06:03:22.791Z,19.76
2017-02-28T06:04:03.572Z,19.84
2017-02-28T06:04:44.283Z,19.79
2017-02-28T06:05:24.926Z,19.75
2017-02-28T06:06:06.096Z,19.73
2017-02-28T06:06:46.728Z,19.79
2017-02-28T06:07:27.356Z,19.83
2017-02-28T06:08:08.050Z,19.84
2017-02-28T06:08:48.687Z,19.88
2017-02-28T06:09:29.313Z,19.79
2017-02-28T06:10:10.090Z,19.8
2017-02-28T06:10:50.720Z,19.84
2017-02-28T06:11:31.432Z,19.87
2017-02-28T06:12:12.075Z,19.76
2017-02-28T06:12:52.709Z,19.76
2017-02-28T06:13:33.360Z,19.8
2017-02-28T06:14:14.064Z,19.88
2017-02-28T06:14:54.768Z,19.93
2017-02-28T06:15:35.394Z,19.76
2017-02-28T06:16:16.038Z,19.8
2017-02-28T06:16:56.700Z,19.76
2017-02-28T06:17:37.335Z,19.84
2017-02-28T06:18:18.046Z,19.8
2017-02-28T06:18:58.747Z,19.83
2017-02-28T06:19:39.374Z,19.79
2017-02-28T06:20:20.110Z,19.86
2017-02-28T06:21:00.740Z,19.83
2017-02-28T06:21:41.409Z,19.79
2017-02-28T06:22:22.018Z,19.83
2017-02-28T06:23:02.668Z,19.78
2017-02-28T06:23:43.329Z,19.88
2017-02-28T06:24:23.936Z,19.86
2017-02-28T06:25:04.567Z,19.84
2017-02-28T06:25:45.213Z,19.84
2017-02-28T06:26:25.882Z,19.83
2017-02-28T06:27:06.517Z,19.83
2017-02-28T06:27:47.191Z,19.73
2017-02-28T06:28:27.880Z,19.86
2017-02-28T06:29:08.507Z,19.9
2017-02-28T06:29:49.210Z,19.79
2017-02-28T06:30:29.857Z,19.8
2017-02-28T06:31:10.482Z,19.8
2017-02-28T06:31:51.133Z,19.8
2017-02-28T06:32:31.766Z,19.84
2017-02-28T06:33:12.399Z,19.79
2017-02-28T06:33:53.066Z,19.79
2017-02-28T06:34:33.705Z,19.86
2017-02-28T06:35:14.336Z,19.88
2017-02-28T06:35:55.039Z,19.9
2017-02-28T06:36:35.677Z,19.84
2017-02-28T06:37:16.312Z,19.76
2017-02-28T06:37:57.043Z,19.79
2017-02-28T06:38:37.678Z,19.8
2017-02-28T06:39:18.390Z,19.84
2017-02-28T06:39:59.030Z,19.87
2017-02-28T06:40:39.701Z,19.79
2017-02-28T06:41:20.300Z,19.8
2017-02-28T06:42:00.941Z,19.84
2017-02-28T06:42:41.575Z,19.8
2017-02-28T06:43:22.224Z,19.9
2017-02-28T06:44:02.873Z,19.8
2017-02-28T06:44:43.507Z,19.8
2017-02-28T06:45:24.173Z,19.8
2017-02-28T06:46:04.818Z,19.88
2017-02-28T06:46:45.527Z,19.79
2017-02-28T06:47:26.183Z,19.87
2017-02-28T06:48:06.817Z,19.73
2017-02-28T06:48:47.448Z,19.79
2017-02-28T06:49:28.080Z,19.83
2017-02-28T06:50:08.709Z,19.79
2017-02-28T06:50:49.343Z,19.83
2017-02-28T06:51:29.977Z,19.8
2017-02-28T06:52:10.752Z,19.84
2017-02-28T06:52:51.461Z,19.83
2017-02-28T06:53:32.103Z,19.84
2017-02-28T06:54:12.740Z,19.79
2017-02-28T06:54:53.369Z,19.78
2017-02-28T06:55:34.005Z,19.83
2017-02-28T06:56:14.720Z,19.8
2017-02-28T06:56:55.349Z,19.78
2017-02-28T06:57:36.025Z,19.84
2017-02-28T06:58:16.672Z,19.78
2017-02-28T06:58:57.373Z,19.78
2017-02-28T06:59:38.039Z,19.88
2017-02-28T07:00:18.697Z,19.7
2017-02-28T07:00:59.325Z,19.75
2017-02-28T07:01:40.017Z,19.76
2017-02-28T07:02:20.643Z,19.78
2017-02-28T07:03:01.288Z,19.69
2017-02-28T07:03:41.914Z,19.73
2017-02-28T07:04:22.548Z,19.72
2017-02-28T07:05:03.186Z,19.72
2017-02-28T07:05:43.811Z,19.79
2017-02-28T07:06:24.448Z,19.79
2017-02-28T07:07:05.078Z,19.84
2017-02-28T07:07:45.795Z,19.69
2017-02-28T07:08:26.432Z,19.75
2017-02-28T07:09:07.053Z,19.8
2017-02-28T07:09:47.702Z,19.72
2017-02-28T07:10:28.336Z,19.83
2017-02-28T07:11:09.014Z,19.8
2017-02-28T07:11:49.747Z,19.76
2017-02-28T07:12:30.370Z,19.76
2017-02-28T07:13:11.074Z,19.76
2017-02-28T07:13:51.778Z,19.86
2017-02-28T07:14:32.407Z,19.8
2017-02-28T07:15:13.043Z,19.83
2017-02-28T07:15:53.672Z,19.8
2017-02-28T07:16:34.358Z,19.84
2017-02-28T07:17:14.960Z,19.86
2017-02-28T07:17:55.661Z,19.87
2017-02-28T07:18:36.339Z,19.83
2017-02-28T07:19:16.992Z,19.79
2017-02-28T07:19:57.617Z,19.78
2017-02-28T07:20:38.309Z,19.9
2017-02-28T07:21:18.931Z,19.79
2017-02-28T07:21:59.567Z,19.78
2017-02-28T07:22:40.241Z,19.79
2017-02-28T07:23:20.890Z,19.79
2017-02-28T07:24:01.552Z,19.8
2017-02-28T07:24:42.271Z,19.8
2017-02-28T07:25:22.902Z,19.87
2017-02-28T07:26:03.647Z,19.83
2017-02-28T07:26:44.280Z,19.83
2017-02-28T07:27:24.993Z,19.76
2017-02-28T07:28:05.654Z,19.87
2017-02-28T07:28:46.367Z,19.79
2017-02-28T07:29:27.020Z,19.78
2017-02-28T07:30:07.655Z,19.8
2017-02-28T07:30:48.286Z,19.78
2017-02-28T07:31:28.995Z,19.76
2017-02-28T07:32:09.622Z,19.78
2017-02-28T07:32:50.323Z,19.79
2017-02-28T07:33:31.031Z,19.78
2017-02-28T07:34:11.668Z,19.78
2017-02-28T07:34:52.290Z,19.76
2017-02-28T07:35:32.913Z,19.8
2017-02-28T07:36:13.637Z,19.78
2017-02-28T07:36:54.207Z,19.75
2017-02-28T07:37:34.930Z,19.79
2017-02-28T07:38:15.560Z,19.78
2017-02-28T07:38:56.199Z,19.75
2017-02-28T07:39:36.914Z,19.8
2017-02-28T07:40:17.535Z,19.72
2017-02-28T07:40:58.175Z,19.7
2017-02-28T07:41:38.909Z,19.75
2017-02-28T07:42:19.602Z,19.7
2017-02-28T07:43:00.234Z,19.78
2017-02-28T07:43:40.907Z,19.8
2017-02-28T07:44:21.564Z,19.79
2017-02-28T07:45:02.193Z,19.75
2017-02-28T07:45:42.888Z,19.76
2017-02-28T07:46:23.591Z,19.75
2017-02-28T07:47:04.276Z,19.75
2017-02-28T07:47:44.901Z,19.7
2017-02-28T07:48:25.531Z,19.73
2017-02-28T07:49:06.201Z,19.7
2017-02-28T07:49:46.818Z,19.83
2017-02-28T07:50:27.440Z,19.76
2017-02-28T07:51:08.074Z,19.68
2017-02-28T07:51:48.701Z,19.72
2017-02-28T07:52:29.440Z,19.73
2017-02-28T07:53:10.188Z,19.73
2017-02-28T07:53:50.825Z,19.73
2017-02-28T07:54:31.482Z,19.75
2017-02-28T07:55:12.238Z,19.7
2017-02-28T07:55:52.884Z,19.76
2017-02-28T07:56:33.524Z,19.69
2017-02-28T07:57:14.283Z,19.73
2017-02-28T07:57:54.987Z,19.78
2017-02-28T07:58:35.616Z,19.78
2017-02-28T07:59:16.296Z,19.76
2017-02-28T07:59:56.954Z,19.69
2017-02-28T08:00:37.599Z,19.7
2017-02-28T08:01:18.310Z,19.73
2017-02-28T08:01:58.975Z,19.76
2017-02-28T08:02:39.610Z,19.76
2017-02-28T08:03:20.233Z,19.83
2017-02-28T08:04:00.903Z,19.79
2017-02-28T08:04:41.532Z,19.75
2017-02-28T08:05:22.174Z,19.78
2017-02-28T08:06:02.830Z,19.76
2017-02-28T08:06:43.457Z,19.78
2017-02-28T08:07:24.086Z,19.76
2017-02-28T08:08:04.748Z,19.72
2017-02-28T08:08:45.391Z,19.78
2017-02-28T08:09:26.018Z,19.79
2017-02-28T08:10:06.701Z,19.83
2017-02-28T08:10:47.425Z,19.75
2017-02-28T08:11:28.057Z,19.7
2017-02-28T08:12:08.704Z,19.78
2017-02-28T08:12:49.427Z,19.75
2017-02-28T08:13:30.063Z,19.75
2017-02-28T08:14:10.722Z,19.7
2017-02-28T08:14:51.394Z,19.75
2017-02-28T08:15:32.020Z,19.72
2017-02-28T08:16:12.733Z,19.69
2017-02-28T08:16:53.426Z,19.8
2017-02-28T08:17:34.049Z,19.76
2017-02-28T08:18:14.681Z,19.83
2017-02-28T08:18:55.329Z,19.84
2017-02-28T08:19:35.968Z,19.79
2017-02-28T08:20:16.611Z,19.76
2017-02-28T08:20:57.270Z,19.83
2017-02-28T08:21:37.952Z,19.84
2017-02-28T08:22:18.582Z,19.78
2017-02-28T08:22:59.257Z,19.83
2017-02-28T08:23:39.893Z,19.84
2017-02-28T08:24:20.514Z,19.78
2017-02-28T08:25:01.262Z,19.78
2017-02-28T08:25:41.948Z,19.8
2017-02-28T08:26:22.574Z,19.78
2017-02-28T08:27:03.236Z,19.78
2017-02-28T08:27:43.880Z,19.79
2017-02-28T08:28:24.528Z,19.87
2017-02-28T08:29:05.147Z,19.75
2017-02-28T08:29:45.826Z,19.7
2017-02-28T08:30:26.462Z,19.78
2017-02-28T08:31:07.137Z,19.79
2017-02-28T08:31:47.830Z,19.79
2017-02-28T08:32:28.506Z,19.79
2017-02-28T08:33:09.139Z,19.8
2017-02-28T08:33:49.870Z,19.79
2017-02-28T08:34:30.538Z,19.73
2017-02-28T08:35:11.163Z,19.72
2017-02-28T08:35:51.800Z,19.79
2017-02-28T08:36:32.433Z,19.8
2017-02-28T08:37:13.078Z,19.84
2017-02-28T08:37:53.720Z,19.76
2017-02-28T08:38:34.446Z,19.79
2017-02-28T08:39:15.076Z,19.87
2017-02-28T08:39:55.706Z,19.8
2017-02-28T08:40:36.418Z,19.83
2017-02-28T08:41:17.046Z,19.78
2017-02-28T08:41:57.674Z,19.7
2017-02-28T08:42:38.299Z,19.79
2017-02-28T08:43:18.931Z,19.83
2017-02-28T08:43:59.599Z,19.76
2017-02-28T08:44:40.235Z,19.73
2017-02-28T08:45:20.863Z,19.9
2017-02-28T08:46:01.571Z,19.79
2017-02-28T08:46:42.260Z,19.8